Time;durP1;ratioP1;P1;durP2;ratioP2;P2;SDS_P1;SDS_P2;PMS_P1;PMS_P2;Temp;Humidity;BMP_temperature;BMP_pressure;BME280_temperature;BME280_humidity;BME280_pressure;Samples;Min_cycle;Max_cycle;Signal;HPM_P1;HPM_P2
2021/10/24 00:00:47;;;;;;;;;;;;;;;6.11;100.00;100308.00;5011759;28;20362;-64
2021/10/24 00:03:13;;;;;;;;;;;;;;;6.24;100.00;100305.53;5029423;28;19919;-65
2021/10/24 00:05:38;;;;;;;;;;;;;;;6.07;100.00;100297.75;5035252;28;20461;-64
2021/10/24 00:08:04;;;;;;;;;;;;;;;6.30;100.00;100301.31;5032888;27;20375;-64
2021/10/24 00:10:30;;;;;;;;;;;;;;;6.25;100.00;100289.34;5019389;28;19960;-64
2021/10/24 00:12:55;;;;;;;;;;;;;;;6.06;100.00;100292.63;5013271;28;19920;-64
2021/10/24 00:15:21;;;;;;;;;;;;;;;5.70;100.00;100286.34;5020790;27;19970;-64
2021/10/24 00:17:47;;;;;;;;;;;;;;;5.92;100.00;100294.19;5031033;28;19969;-64
2021/10/24 00:20:12;;;;;;;;;;;;;;;5.87;100.00;100296.72;5014156;28;20012;-64
2021/10/24 00:22:37;;;;;;;;;;;;;;;5.56;100.00;100290.47;5057334;27;19917;-65
2021/10/24 00:25:03;;;;;;;;;;;;;;;5.52;100.00;100291.28;4996316;28;19917;-64
2021/10/24 00:27:28;;;;;;;;;;;;;;;5.79;100.00;100294.13;5013235;28;20174;-64
2021/10/24 00:29:53;;;;;;;;;;;;;;;5.80;100.00;100295.81;5032734;28;20311;-65
2021/10/24 00:32:19;;;;;;;;;;;;;;;6.08;100.00;100296.06;5004204;28;19917;-65
2021/10/24 00:34:44;;;;;;;;;;;;;;;6.22;100.00;100298.69;5020751;28;19974;-65
2021/10/24 00:37:10;;;;;;;;;;;;;;;5.82;100.00;100278.78;5037698;28;19917;-65
2021/10/24 00:39:35;;;;;;;;;;;;;;;5.68;100.00;100284.63;5014962;28;20389;-64
2021/10/24 00:42:01;;;;;;;;;;;;;;;5.78;100.00;100284.72;5009893;28;19917;-65
2021/10/24 00:44:27;;;;;;;;;;;;;;;5.80;100.00;100285.59;5015501;28;19924;-68
2021/10/24 00:46:53;;;;;;;;;;;;;;;5.94;100.00;100282.28;5024127;28;19928;-68
2021/10/24 00:49:19;;;;;;;;;;;;;;;5.89;100.00;100283.97;5010695;28;19924;-68
2021/10/24 00:51:45;;;;;;;;;;;;;;;5.79;100.00;100283.88;5011613;28;20295;-68
2021/10/24 00:54:12;;;;;;;;;;;;;;;5.53;100.00;100282.81;5043776;28;19918;-68
2021/10/24 00:56:38;;;;;;;;;;;;;;;5.57;100.00;100292.22;5005412;28;19925;-68
2021/10/24 00:59:03;;;;;;;;;;;;;;;5.43;100.00;100295.50;5005117;28;19917;-68
2021/10/24 01:01:29;;;;;;;;;;;;;;;5.58;100.00;100297.31;5014470;28;19975;-68
2021/10/24 01:03:54;;;;;;;;;;;;;;;5.86;100.00;100292.44;5012062;28;19918;-68
2021/10/24 01:06:19;;;;;;;;;;;;;;;6.00;100.00;100288.34;5022139;28;20500;-68
2021/10/24 01:08:45;;;;;;;;;;;;;;;5.65;100.00;100282.91;5010775;28;19917;-67
2021/10/24 01:11:10;;;;;;;;;;;;;;;5.17;100.00;100284.13;5043987;28;20385;-67
2021/10/24 01:13:36;;;;;;;;;;;;;;;5.36;100.00;100288.59;5020832;28;20378;-67
2021/10/24 01:16:11;;;;;;;;;;;;;;;5.43;100.00;100292.09;5020601;28;20305;-67
2021/10/24 01:18:36;;;;;;;;;;;;;;;5.49;100.00;100288.72;4986876;28;19914;-67
2021/10/24 01:21:02;;;;;;;;;;;;;;;5.60;100.00;100289.69;5011654;28;19924;-67
2021/10/24 01:23:27;;;;;;;;;;;;;;;5.83;100.00;100283.03;5043799;28;19925;-67
2021/10/24 01:25:53;;;;;;;;;;;;;;;5.49;100.00;100283.59;5012162;28;19917;-67
2021/10/24 01:28:18;;;;;;;;;;;;;;;5.41;100.00;100281.84;5025628;28;19993;-68
2021/10/24 01:30:44;;;;;;;;;;;;;;;5.53;100.00;100287.91;5003958;28;19927;-68
2021/10/24 01:33:12;;;;;;;;;;;;;;;5.62;100.00;100285.44;5028272;28;20378;-67
2021/10/24 01:35:59;;;;;;;;;;;;;;;5.60;100.00;100282.84;5026977;28;19960;-66
2021/10/24 01:38:25;;;;;;;;;;;;;;;5.54;100.00;100276.84;5028258;28;19913;-67
2021/10/24 01:40:50;;;;;;;;;;;;;;;5.85;100.00;100277.94;5031929;28;19913;-66
2021/10/24 01:43:16;;;;;;;;;;;;;;;5.78;100.00;100281.31;5063905;28;20298;-67
2021/10/24 01:45:42;;;;;;;;;;;;;;;5.91;100.00;100269.47;5031904;28;19920;-67
2021/10/24 01:48:07;;;;;;;;;;;;;;;6.00;100.00;100262.75;5030343;28;19920;-66
2021/10/24 01:50:33;;;;;;;;;;;;;;;5.76;100.00;100263.41;5047091;28;19921;-67
2021/10/24 01:52:58;;;;;;;;;;;;;;;5.66;100.00;100253.97;5018639;28;19914;-67
2021/10/24 01:55:26;;;;;;;;;;;;;;;5.67;100.00;100255.66;5014201;28;19931;-68
2021/10/24 01:57:52;;;;;;;;;;;;;;;5.55;100.00;100247.91;5008248;28;19939;-68
2021/10/24 02:00:17;;;;;;;;;;;;;;;5.31;100.00;100251.94;5045220;27;20198;-67
2021/10/24 02:02:44;;;;;;;;;;;;;;;5.26;100.00;100251.03;5023193;28;19920;-68
2021/10/24 02:05:09;;;;;;;;;;;;;;;5.39;100.00;100259.69;5008140;28;19921;-65
2021/10/24 02:07:35;;;;;;;;;;;;;;;5.43;100.00;100254.63;5012800;28;19932;-64
2021/10/24 02:10:01;;;;;;;;;;;;;;;5.37;100.00;100241.78;4992216;28;19921;-65
2021/10/24 02:12:27;;;;;;;;;;;;;;;5.45;100.00;100242.72;5014268;28;19925;-65
2021/10/24 02:14:52;;;;;;;;;;;;;;;5.44;100.00;100235.88;5023885;28;19924;-64
2021/10/24 02:17:18;;;;;;;;;;;;;;;5.33;100.00;100240.03;5002950;28;19920;-64
2021/10/24 02:19:43;;;;;;;;;;;;;;;5.48;100.00;100256.34;5007701;28;19975;-68
2021/10/24 02:22:08;;;;;;;;;;;;;;;5.39;100.00;100242.66;5009129;27;19921;-67
2021/10/24 02:24:34;;;;;;;;;;;;;;;5.44;100.00;100240.97;4991119;28;19921;-67
2021/10/24 02:26:59;;;;;;;;;;;;;;;5.44;100.00;100238.44;4991287;28;19981;-65
2021/10/24 02:29:25;;;;;;;;;;;;;;;5.40;100.00;100244.34;5012588;28;19925;-64
2021/10/24 02:31:50;;;;;;;;;;;;;;;5.42;100.00;100236.72;5008290;28;19918;-64
2021/10/24 02:34:16;;;;;;;;;;;;;;;5.26;100.00;100240.81;5007801;28;20012;-64
2021/10/24 02:36:41;;;;;;;;;;;;;;;5.36;100.00;100237.53;5007376;28;19956;-67
2021/10/24 02:39:07;;;;;;;;;;;;;;;5.37;100.00;100236.66;5024010;28;19921;-68
2021/10/24 02:41:32;;;;;;;;;;;;;;;5.47;100.00;100239.31;5012012;28;19921;-68
2021/10/24 02:43:58;;;;;;;;;;;;;;;5.54;100.00;100241.06;5014522;28;19940;-68
2021/10/24 02:46:23;;;;;;;;;;;;;;;5.50;100.00;100234.25;5021759;28;19957;-68
2021/10/24 02:48:49;;;;;;;;;;;;;;;5.33;100.00;100232.38;4996742;28;19947;-68
2021/10/24 02:51:14;;;;;;;;;;;;;;;5.49;100.00;100237.63;5008944;28;19929;-68
2021/10/24 02:53:39;;;;;;;;;;;;;;;5.48;100.00;100230.81;5008041;28;21113;-68
2021/10/24 02:56:05;;;;;;;;;;;;;;;5.42;100.00;100227.34;5015338;28;19964;-68
2021/10/24 02:58:30;;;;;;;;;;;;;;;5.27;100.00;100232.31;5011929;28;20416;-68
2021/10/24 03:00:56;;;;;;;;;;;;;;;5.30;100.00;100232.34;5023576;28;19994;-68
2021/10/24 03:03:22;;;;;;;;;;;;;;;5.51;100.00;100233.38;5014058;28;19921;-68
2021/10/24 03:05:48;;;;;;;;;;;;;;;5.51;100.00;100225.72;5026750;27;19928;-68
2021/10/24 03:08:13;;;;;;;;;;;;;;;5.66;100.00;100223.28;5013110;28;19922;-68
2021/10/24 03:10:39;;;;;;;;;;;;;;;5.60;100.00;100218.13;5009285;28;20290;-67
2021/10/24 03:13:04;;;;;;;;;;;;;;;5.46;100.00;100212.91;5013369;28;19913;-68
2021/10/24 03:15:30;;;;;;;;;;;;;;;5.60;100.00;100213.84;5013391;28;20454;-68
2021/10/24 03:17:55;;;;;;;;;;;;;;;5.53;100.00;100221.47;4991024;28;19921;-68
2021/10/24 03:20:21;;;;;;;;;;;;;;;5.61;100.00;100210.47;5006924;28;19921;-68
2021/10/24 03:22:46;;;;;;;;;;;;;;;5.50;100.00;100217.19;5030676;27;19932;-68
2021/10/24 03:25:12;;;;;;;;;;;;;;;5.54;100.00;100210.41;4989915;28;19921;-68
2021/10/24 03:27:37;;;;;;;;;;;;;;;5.55;100.00;100209.56;5022305;28;20418;-68
2021/10/24 03:30:03;;;;;;;;;;;;;;;5.63;100.00;100205.34;5007860;28;20428;-64
2021/10/24 03:32:28;;;;;;;;;;;;;;;5.56;100.00;100209.56;5022530;28;19925;-63
2021/10/24 03:34:54;;;;;;;;;;;;;;;5.60;100.00;100210.44;5011095;28;20363;-65
2021/10/24 03:37:19;;;;;;;;;;;;;;;5.43;100.00;100208.63;5006959;28;20398;-64
2021/10/24 03:39:45;;;;;;;;;;;;;;;5.65;100.00;100208.78;5023449;27;20387;-65
2021/10/24 03:42:10;;;;;;;;;;;;;;;5.37;100.00;100206.00;4989880;28;19928;-64
2021/10/24 03:44:36;;;;;;;;;;;;;;;5.61;100.00;100205.38;5015127;28;20016;-64
2021/10/24 03:47:01;;;;;;;;;;;;;;;5.51;100.00;100210.38;5010990;28;19932;-68
2021/10/24 03:49:27;;;;;;;;;;;;;;;5.52;100.00;100212.09;5011114;28;19917;-68
2021/10/24 03:51:52;;;;;;;;;;;;;;;5.62;100.00;100206.22;5013339;28;19917;-64
2021/10/24 03:54:18;;;;;;;;;;;;;;;5.37;100.00;100206.00;5009126;28;19918;-64
2021/10/24 03:56:43;;;;;;;;;;;;;;;5.54;100.00;100211.28;4990717;28;20026;-64
2021/10/24 03:59:09;;;;;;;;;;;;;;;5.43;100.00;100211.19;5011520;28;20295;-64
2021/10/24 04:01:34;;;;;;;;;;;;;;;5.49;100.00;100201.84;5005053;28;19918;-68
2021/10/24 04:03:59;;;;;;;;;;;;;;;5.51;100.00;100206.13;5044626;28;19921;-68
2021/10/24 04:06:25;;;;;;;;;;;;;;;5.67;100.00;100201.97;5005423;28;19929;-68
2021/10/24 04:08:50;;;;;;;;;;;;;;;5.58;100.00;100207.03;5013450;28;19921;-68
2021/10/24 04:11:16;;;;;;;;;;;;;;;5.48;100.00;100200.16;4989886;28;19913;-68
2021/10/24 04:13:42;;;;;;;;;;;;;;;5.55;100.00;100200.19;5009986;28;19939;-66
2021/10/24 04:16:08;;;;;;;;;;;;;;;5.73;100.00;100201.19;5008518;28;19917;-66
2021/10/24 04:18:33;;;;;;;;;;;;;;;5.70;100.00;100196.03;5024432;28;19917;-64
2021/10/24 04:20:59;;;;;;;;;;;;;;;5.55;100.00;100194.25;5012956;28;20628;-67
2021/10/24 04:23:24;;;;;;;;;;;;;;;5.62;100.00;100190.88;5008615;28;19913;-65
2021/10/24 04:25:50;;;;;;;;;;;;;;;5.67;100.00;100181.53;5010723;28;19917;-64
2021/10/24 04:28:16;;;;;;;;;;;;;;;5.54;100.00;100184.84;5026493;28;19917;-64
2021/10/24 04:30:42;;;;;;;;;;;;;;;5.42;100.00;100181.34;5008543;28;20439;-64
2021/10/24 04:33:07;;;;;;;;;;;;;;;5.50;100.00;100178.88;5011767;28;19921;-64
2021/10/24 04:35:33;;;;;;;;;;;;;;;5.65;100.00;100188.34;5006519;28;19957;-64
2021/10/24 04:37:58;;;;;;;;;;;;;;;5.60;100.00;100175.53;4991515;28;20525;-64
2021/10/24 04:40:24;;;;;;;;;;;;;;;5.79;100.00;100175.66;5021681;28;20393;-67
2021/10/24 04:42:49;;;;;;;;;;;;;;;5.74;100.00;100167.94;5013497;28;19928;-67
2021/10/24 04:45:15;;;;;;;;;;;;;;;5.55;100.00;100172.09;5021037;28;19925;-68
2021/10/24 04:47:40;;;;;;;;;;;;;;;5.63;100.00;100172.13;5007836;28;19966;-68
2021/10/24 04:50:06;;;;;;;;;;;;;;;5.74;100.00;100167.09;5005094;28;20306;-68
2021/10/24 04:52:31;;;;;;;;;;;;;;;5.77;100.00;100159.44;5017112;28;20286;-67
2021/10/24 04:54:57;;;;;;;;;;;;;;;5.68;100.00;100160.25;5024593;28;20290;-64
2021/10/24 04:57:22;;;;;;;;;;;;;;;5.69;100.00;100151.75;5009652;28;19925;-67
2021/10/24 04:59:48;;;;;;;;;;;;;;;5.92;100.00;100158.69;5020327;28;19924;-67
2021/10/24 05:02:13;;;;;;;;;;;;;;;5.77;100.00;100141.56;5012914;28;20004;-68
2021/10/24 05:04:38;;;;;;;;;;;;;;;6.00;100.00;100144.28;5010800;28;19921;-68
2021/10/24 05:07:04;;;;;;;;;;;;;;;6.06;100.00;100141.75;5012811;28;19925;-68
2021/10/24 05:09:29;;;;;;;;;;;;;;;5.83;100.00;100129.66;4988508;28;20016;-68
2021/10/24 05:11:55;;;;;;;;;;;;;;;5.69;100.00;100128.75;5011821;28;20003;-68
2021/10/24 05:14:20;;;;;;;;;;;;;;;5.85;100.00;100130.53;5024319;28;19970;-68
2021/10/24 05:16:46;;;;;;;;;;;;;;;5.94;100.00;100124.66;5015837;28;19925;-68
2021/10/24 05:19:11;;;;;;;;;;;;;;;5.70;100.00;100121.91;4991604;28;19921;-67
2021/10/24 05:21:37;;;;;;;;;;;;;;;5.87;100.00;100128.84;5007701;28;20446;-67
2021/10/24 05:24:03;;;;;;;;;;;;;;;5.67;100.00;100125.31;5025417;27;20426;-67
2021/10/24 05:26:29;;;;;;;;;;;;;;;5.72;100.00;100121.06;5012588;28;20394;-67
2021/10/24 05:28:54;;;;;;;;;;;;;;;5.38;100.00;100123.44;4991472;28;19925;-68
2021/10/24 05:31:20;;;;;;;;;;;;;;;5.61;100.00;100122.72;5016825;28;19921;-68
2021/10/24 05:33:45;;;;;;;;;;;;;;;5.62;100.00;100127.00;5013297;28;20378;-68
2021/10/24 05:36:11;;;;;;;;;;;;;;;5.70;100.00;100124.47;5022390;27;19986;-67
2021/10/24 05:38:36;;;;;;;;;;;;;;;5.55;100.00;100115.88;4992051;28;20020;-68
2021/10/24 05:41:02;;;;;;;;;;;;;;;5.70;100.00;100120.22;4992005;28;20477;-68
2021/10/24 05:43:27;;;;;;;;;;;;;;;5.58;100.00;100115.03;5015066;28;20016;-67
2021/10/24 05:45:53;;;;;;;;;;;;;;;5.38;100.00;100112.34;5011978;28;19964;-68
2021/10/24 05:48:19;;;;;;;;;;;;;;;5.54;100.00;100113.31;5007242;28;19966;-68
2021/10/24 05:50:44;;;;;;;;;;;;;;;5.50;100.00;100121.81;5017142;28;19924;-66
2021/10/24 05:53:10;;;;;;;;;;;;;;;5.64;100.00;100107.41;4997941;28;20370;-64
2021/10/24 05:55:38;;;;;;;;;;;;;;;5.48;100.00;100103.06;5034470;27;19960;-64
2021/10/24 05:58:04;;;;;;;;;;;;;;;5.54;100.00;100103.09;5020074;28;19921;-64
2021/10/24 06:00:30;;;;;;;;;;;;;;;5.65;100.00;100101.44;5018295;28;20390;-68
2021/10/24 06:02:55;;;;;;;;;;;;;;;5.67;100.00;100099.75;4991875;28;19921;-67
2021/10/24 06:05:21;;;;;;;;;;;;;;;5.64;100.00;100094.66;5027460;28;19920;-67
2021/10/24 06:07:48;;;;;;;;;;;;;;;5.87;100.00;100095.59;5006262;28;19946;-68
2021/10/24 06:10:17;;;;;;;;;;;;;;;5.83;100.00;100091.31;5022055;28;19974;-68
2021/10/24 06:12:51;;;;;;;;;;;;;;;5.72;100.00;100089.56;5045327;28;19921;-68
2021/10/24 06:15:17;;;;;;;;;;;;;;;5.90;100.00;100083.69;5009923;28;20409;-66
2021/10/24 06:17:45;;;;;;;;;;;;;;;5.96;100.00;100076.09;5007257;28;19972;-68
2021/10/24 06:20:11;;;;;;;;;;;;;;;5.99;100.00;100070.97;4990215;28;19928;-68
2021/10/24 06:22:37;;;;;;;;;;;;;;;5.94;100.00;100065.84;5032460;27;20485;-67
2021/10/24 06:25:03;;;;;;;;;;;;;;;6.15;100.00;100065.06;5022270;27;19932;-68
2021/10/24 06:27:29;;;;;;;;;;;;;;;6.18;100.00;100062.53;5006741;28;20424;-68
2021/10/24 06:29:54;;;;;;;;;;;;;;;6.12;100.00;100062.50;5017961;28;19982;-64
2021/10/24 06:32:20;;;;;;;;;;;;;;;6.26;100.00;100050.59;4998024;28;20382;-64
2021/10/24 06:34:45;;;;;;;;;;;;;;;6.56;100.00;100037.84;5036533;28;20000;-66
2021/10/24 06:37:11;;;;;;;;;;;;;;;6.45;100.00;100045.50;5029694;28;20444;-67
2021/10/24 06:39:36;;;;;;;;;;;;;;;6.70;100.00;100036.16;5046113;27;20466;-67
2021/10/24 06:42:02;;;;;;;;;;;;;;;6.74;100.00;100037.88;5061745;28;19965;-64
2021/10/24 06:44:27;;;;;;;;;;;;;;;6.28;100.00;100031.00;5020276;28;19913;-68
2021/10/24 06:46:53;;;;;;;;;;;;;;;5.71;100.00;100035.03;5008637;28;19917;-68
2021/10/24 06:49:18;;;;;;;;;;;;;;;5.84;100.00;100044.47;5033919;27;19921;-68
2021/10/24 06:51:43;;;;;;;;;;;;;;;6.13;100.00;100043.72;5008355;28;20931;-68
2021/10/24 06:54:09;;;;;;;;;;;;;;;6.48;100.00;100040.41;5013782;28;19921;-68
2021/10/24 06:56:34;;;;;;;;;;;;;;;5.98;100.00;100052.22;5022891;28;20375;-68
2021/10/24 06:59:00;;;;;;;;;;;;;;;6.23;100.00;100042.91;5011023;28;19967;-67
2021/10/24 07:01:25;;;;;;;;;;;;;;;5.98;100.00;100044.56;5021867;28;19969;-68
2021/10/24 07:03:51;;;;;;;;;;;;;;;6.11;100.00;100048.00;5006830;28;19921;-67
2021/10/24 07:06:16;;;;;;;;;;;;;;;6.26;100.00;100050.59;5005927;28;19948;-68
2021/10/24 07:08:42;;;;;;;;;;;;;;;5.94;100.00;100052.19;5005840;28;20283;-64
2021/10/24 07:11:07;;;;;;;;;;;;;;;6.63;100.00;100049.81;5007049;28;20044;-67
2021/10/24 07:13:32;;;;;;;;;;;;;;;6.23;100.00;100050.59;5009306;28;19924;-67
2021/10/24 07:15:58;;;;;;;;;;;;;;;6.76;100.00;100046.41;5015210;28;19992;-64
2021/10/24 07:18:23;;;;;;;;;;;;;;;6.98;100.00;100047.25;5042649;28;19940;-64
2021/10/24 07:20:49;;;;;;;;;;;;;;;6.78;100.00;100043.84;5011733;28;20378;-64
2021/10/24 07:23:14;;;;;;;;;;;;;;;6.56;100.00;100043.81;5023582;27;19917;-64
2021/10/24 07:25:39;;;;;;;;;;;;;;;6.94;100.00;100035.31;5017025;28;19920;-64
2021/10/24 07:28:05;;;;;;;;;;;;;;;7.19;100.00;100036.13;5020830;27;19922;-65
2021/10/24 07:30:31;;;;;;;;;;;;;;;7.12;100.00;100030.16;5024124;28;20604;-67
2021/10/24 07:32:56;;;;;;;;;;;;;;;7.04;100.00;100024.19;5020440;28;20392;-67
2021/10/24 07:35:22;;;;;;;;;;;;;;;7.43;100.00;100030.09;5005782;28;19928;-66
2021/10/24 07:37:47;;;;;;;;;;;;;;;7.27;100.00;100033.53;5006776;28;20298;-67
2021/10/24 07:40:13;;;;;;;;;;;;;;;7.20;100.00;100026.72;5013641;28;20391;-67
2021/10/24 07:42:39;;;;;;;;;;;;;;;7.06;100.00;100025.03;5020850;28;19925;-67
2021/10/24 07:45:04;;;;;;;;;;;;;;;7.29;100.00;100027.56;5005346;28;19924;-67
2021/10/24 07:47:30;;;;;;;;;;;;;;;7.41;100.00;100019.00;5011594;28;19960;-67
2021/10/24 07:50:06;;;;;;;;;;;;;;;7.40;100.00;100019.84;5004995;28;19917;-67
2021/10/24 07:52:32;;;;;;;;;;;;;;;7.41;100.00;100020.69;4992402;28;19914;-67
2021/10/24 07:54:57;;;;;;;;;;;;;;;7.42;100.00;100015.59;4992053;28;19920;-66
2021/10/24 07:57:23;;;;;;;;;;;;;;;8.10;100.00;100012.75;5008851;28;20357;-67
2021/10/24 07:59:48;;;;;;;;;;;;;;;8.42;100.00;100009.16;5008518;28;19955;-66
2021/10/24 08:02:18;;;;;;;;;;;;;;;8.33;100.00;100010.03;5022451;28;20267;-67
2021/10/24 08:04:43;;;;;;;;;;;;;;;8.59;100.00;100005.56;5018249;28;19921;-67
2021/10/24 08:07:09;;;;;;;;;;;;;;;8.51;100.00;99988.56;5007216;28;20500;-67
2021/10/24 08:09:34;;;;;;;;;;;;;;;8.49;100.00;99991.13;5014824;28;19927;-65
2021/10/24 08:12:00;;;;;;;;;;;;;;;8.74;100.00;99991.78;5043357;28;20026;-63
2021/10/24 08:14:26;;;;;;;;;;;;;;;8.63;100.00;99985.03;5012229;28;19920;-66
2021/10/24 08:16:51;;;;;;;;;;;;;;;8.79;100.00;99982.31;5011136;28;19925;-67
2021/10/24 08:19:17;;;;;;;;;;;;;;;9.03;100.00;99980.34;5011229;28;19925;-67
2021/10/24 08:21:43;;;;;;;;;;;;;;;8.58;100.00;99979.94;5021017;28;19919;-68
2021/10/24 08:24:08;;;;;;;;;;;;;;;8.89;100.00;99979.66;5028152;28;19924;-68
2021/10/24 08:26:34;;;;;;;;;;;;;;;8.93;100.00;99973.63;5033350;27;19929;-68
2021/10/24 08:29:00;;;;;;;;;;;;;;;9.29;100.00;99977.53;5024162;28;19927;-68
2021/10/24 08:31:27;;;;;;;;;;;;;;;9.59;100.00;99968.59;4992588;28;20366;-68
2021/10/24 08:33:58;;;;;;;;;;;;;;;9.44;100.00;99963.63;5011210;28;19981;-67
2021/10/24 08:36:24;;;;;;;;;;;;;;;9.89;100.00;99956.19;5044367;27;20008;-66
2021/10/24 08:38:50;;;;;;;;;;;;;;;10.18;100.00;99957.53;5044176;28;20402;-67
2021/10/24 08:41:22;;;;;;;;;;;;;;;10.19;100.00;99949.75;5027989;28;19913;-66
2021/10/24 08:43:49;;;;;;;;;;;;;;;9.71;100.00;99954.72;5027984;28;19917;-67
2021/10/24 08:46:15;;;;;;;;;;;;;;;10.44;100.00;99939.09;5060941;28;19961;-67
2021/10/24 08:48:41;;;;;;;;;;;;;;;10.86;100.00;99937.53;5012067;28;20633;-68
2021/10/24 08:51:06;;;;;;;;;;;;;;;10.18;100.00;99931.78;5014615;28;20499;-64
2021/10/24 08:53:32;;;;;;;;;;;;;;;10.55;100.00;99929.47;4991388;28;19917;-67
2021/10/24 08:55:58;;;;;;;;;;;;;;;10.67;100.00;99925.84;5004075;28;20567;-67
2021/10/24 08:58:25;;;;;;;;;;;;;;;11.21;100.00;99917.09;5041745;28;21034;-67
2021/10/24 09:00:51;;;;;;;;;;;;;;;10.24;100.00;99911.06;5019569;28;20025;-68
2021/10/24 09:03:17;;;;;;;;;;;;;;;10.49;100.00;99908.13;5003533;28;19940;-68
2021/10/24 09:05:44;;;;;;;;;;;;;;;11.32;100.00;99914.31;5002867;28;19917;-67
2021/10/24 09:08:16;;;;;;;;;;;;;;;10.82;100.00;99899.81;5024132;28;19921;-67
2021/10/24 09:10:42;;;;;;;;;;;;;;;11.50;100.00;99899.31;5041386;28;20385;-67
2021/10/24 09:13:08;;;;;;;;;;;;;;;11.53;100.00;99895.81;5006851;28;19917;-67
2021/10/24 09:15:47;;;;;;;;;;;;;;;12.06;100.00;99887.75;5017961;28;19960;-67
2021/10/24 09:18:13;;;;;;;;;;;;;;;10.93;100.00;99888.47;5015965;28;19921;-67
2021/10/24 09:20:39;;;;;;;;;;;;;;;11.62;100.00;99885.28;5006916;28;21185;-67
2021/10/24 09:23:05;;;;;;;;;;;;;;;11.60;100.00;99883.63;5002630;28;19921;-67
2021/10/24 09:25:31;;;;;;;;;;;;;;;11.88;100.00;99878.72;5003653;28;19920;-66
2021/10/24 09:27:57;;;;;;;;;;;;;;;11.39;100.00;99880.63;5040609;27;19916;-66
2021/10/24 09:30:36;;;;;;;;;;;;;;;11.43;100.00;99871.94;5005146;28;19928;-67
2021/10/24 09:33:03;;;;;;;;;;;;;;;11.96;100.00;99865.66;5018239;28;20418;-67
2021/10/24 09:35:30;;;;;;;;;;;;;;;11.79;100.00;99863.41;5019643;28;19914;-67
2021/10/24 09:37:56;;;;;;;;;;;;;;;12.93;100.00;99877.78;5042234;28;19917;-66
2021/10/24 09:40:27;;;;;;;;;;;;;;;12.36;100.00;99875.81;5008246;28;19916;-66
2021/10/24 09:43:11;;;;;;;;;;;;;;;13.15;100.00;99861.66;5013799;28;20059;-67
2021/10/24 09:45:38;;;;;;;;;;;;;;;13.36;100.00;99866.25;5007796;28;19924;-67
2021/10/24 09:48:09;;;;;;;;;;;;;;;12.10;100.00;99874.75;5005651;28;19981;-67
2021/10/24 09:50:37;;;;;;;;;;;;;;;14.08;100.00;99865.75;5006185;28;19928;-67
2021/10/24 09:53:12;;;;;;;;;;;;;;;14.01;100.00;99854.72;5001023;28;19921;-67
2021/10/24 09:55:38;;;;;;;;;;;;;;;12.70;100.00;99864.63;5015333;28;19926;-67
2021/10/24 09:58:04;;;;;;;;;;;;;;;12.87;100.00;99856.41;5003581;28;19925;-67
2021/10/24 10:00:30;;;;;;;;;;;;;;;14.20;100.00;99849.78;5011261;28;19925;-66
2021/10/24 10:02:55;;;;;;;;;;;;;;;14.69;100.00;99854.22;5006223;28;19931;-67
2021/10/24 10:05:22;;;;;;;;;;;;;;;14.24;100.00;99855.72;5012749;28;20290;-67
2021/10/24 10:07:48;;;;;;;;;;;;;;;13.60;100.00;99853.47;4989849;28;19957;-67
2021/10/24 10:10:13;;;;;;;;;;;;;;;13.20;100.00;99854.59;5012035;28;20012;-67
2021/10/24 10:12:42;;;;;;;;;;;;;;;14.56;100.00;99852.06;5010596;28;19917;-67
2021/10/24 10:15:08;;;;;;;;;;;;;;;13.89;100.00;99849.97;5006109;28;19934;-67
2021/10/24 10:17:33;;;;;;;;;;;;;;;14.46;100.00;99849.81;5006367;28;19922;-67
2021/10/24 10:19:59;;;;;;;;;;;;;;;14.34;100.00;99846.72;5012087;28;19958;-64
2021/10/24 10:22:26;;;;;;;;;;;;;;;13.98;100.00;99843.63;5037557;28;19943;-64
2021/10/24 10:24:58;;;;;;;;;;;;;;;15.15;100.00;99829.22;5015425;28;19917;-64
2021/10/24 10:27:27;;;;;;;;;;;;;;;14.96;100.00;99829.91;5015498;28;19918;-64
2021/10/24 10:30:19;;;;;;;;;;;;;;;15.76;100.00;99813.03;5023911;28;20574;-65
2021/10/24 10:32:45;;;;;;;;;;;;;;;15.60;100.00;99815.34;5011696;28;19928;-64
2021/10/24 10:35:14;;;;;;;;;;;;;;;15.10;100.00;99810.38;5028347;28;19963;-64
2021/10/24 10:37:52;;;;;;;;;;;;;;;14.97;100.00;99815.19;5029185;28;19930;-64
2021/10/24 10:40:32;;;;;;;;;;;;;;;15.32;100.00;99806.06;5023398;27;20023;-64
2021/10/24 10:43:18;;;;;;;;;;;;;;;15.69;100.00;99808.06;5033391;28;19917;-64
2021/10/24 10:45:47;;;;;;;;;;;;;;;15.09;100.00;99806.09;5017174;28;19920;-64
2021/10/24 10:48:26;;;;;;;;;;;;;;;15.04;100.00;99795.91;5025227;28;19917;-64
2021/10/24 10:50:56;;;;;;;;;;;;;;;14.96;100.00;99798.78;5016240;28;20269;-64
2021/10/24 10:53:30;;;;;;;;;;;;;;;14.76;100.00;99788.31;5022783;28;19918;-64
2021/10/24 10:55:56;;;;;;;;;;;;;;;15.40;100.00;99793.66;5022900;28;19926;-64
2021/10/24 10:58:41;;;;;;;;;;;;;;;15.12;100.00;99793.00;5018896;28;20026;-65
2021/10/24 11:01:07;;;;;;;;;;;;;;;15.46;100.00;99792.53;5016924;28;19913;-64
2021/10/24 11:03:52;;;;;;;;;;;;;;;15.09;100.00;99790.53;5015025;28;19928;-64
2021/10/24 11:06:23;;;;;;;;;;;;;;;15.22;100.00;99784.81;5017901;28;19913;-64
2021/10/24 11:08:49;;;;;;;;;;;;;;;14.39;100.00;99784.38;5034043;28;19917;-65
2021/10/24 11:11:14;;;;;;;;;;;;;;;15.43;100.00;99788.31;5019338;28;19917;-65
2021/10/24 11:13:41;;;;;;;;;;;;;;;15.38;100.00;99785.06;5027752;28;20032;-64
2021/10/24 11:16:26;;;;;;;;;;;;;;;15.78;100.00;99788.72;5017248;28;19924;-65
2021/10/24 11:18:51;;;;;;;;;;;;;;;15.60;100.00;99779.00;5036515;28;19925;-64
2021/10/24 11:21:29;;;;;;;;;;;;;;;15.39;100.00;99773.75;5030155;28;19917;-65
2021/10/24 11:23:55;;;;;;;;;;;;;;;15.05;100.00;99775.09;5026711;28;19960;-65
2021/10/24 11:26:21;;;;;;;;;;;;;;;15.27;100.00;99766.47;5018849;28;20301;-65
2021/10/24 11:28:46;;;;;;;;;;;;;;;15.36;100.00;99766.13;5014101;28;20055;-65
2021/10/24 11:31:11;;;;;;;;;;;;;;;15.41;100.00;99761.56;5014338;28;19952;-64
2021/10/24 11:33:45;;;;;;;;;;;;;;;15.91;100.00;99754.44;5018261;28;20336;-64
2021/10/24 11:36:11;;;;;;;;;;;;;;;16.02;100.00;99754.81;5025550;28;20379;-65
2021/10/24 11:38:37;;;;;;;;;;;;;;;15.76;100.00;99754.16;5013876;28;20375;-64
2021/10/24 11:41:02;;;;;;;;;;;;;;;15.80;99.73;99752.28;5018043;28;19914;-64
2021/10/24 11:43:29;;;;;;;;;;;;;;;15.95;100.00;99749.03;5018470;28;20007;-64
2021/10/24 11:45:56;;;;;;;;;;;;;;;16.20;99.88;99753.19;5019688;28;19924;-64
2021/10/24 11:48:28;;;;;;;;;;;;;;;16.09;96.11;99740.66;5014231;28;19945;-64
2021/10/24 11:51:04;;;;;;;;;;;;;;;16.03;90.43;99738.31;5015103;28;20004;-65
2021/10/24 11:53:32;;;;;;;;;;;;;;;16.28;100.00;99735.50;5014273;28;19913;-64
2021/10/24 11:56:08;;;;;;;;;;;;;;;15.72;96.98;99734.41;5011123;28;19917;-64
2021/10/24 12:01:07;;;;;;;;;;;;;;;15.89;93.29;99720.72;5023472;28;19913;-64
2021/10/24 12:03:34;;;;;;;;;;;;;;;16.23;89.34;99717.50;5022237;27;19936;-65
2021/10/24 12:06:00;;;;;;;;;;;;;;;16.45;97.67;99711.38;5033920;28;19959;-64
2021/10/24 12:09:01;;;;;;;;;;;;;;;16.33;89.83;99706.69;5022622;28;20374;-64
2021/10/24 12:11:42;;;;;;;;;;;;;;;16.45;94.14;99712.22;5075733;28;20835;-67
2021/10/24 12:14:14;;;;;;;;;;;;;;;16.30;95.23;99708.53;5011821;28;19918;-68
2021/10/24 12:16:43;;;;;;;;;;;;;;;16.05;89.94;99707.91;5010694;28;19970;-67
2021/10/24 12:19:08;;;;;;;;;;;;;;;16.29;89.17;99700.81;5004610;28;19918;-67
2021/10/24 12:21:34;;;;;;;;;;;;;;;16.48;94.51;99698.22;5011643;28;19928;-67
2021/10/24 12:24:13;;;;;;;;;;;;;;;16.70;93.31;99693.75;4989791;28;19928;-67
2021/10/24 12:26:39;;;;;;;;;;;;;;;16.77;91.68;99685.66;5043389;28;20428;-67
2021/10/24 12:29:14;;;;;;;;;;;;;;;16.56;88.89;99687.47;5009466;28;19913;-67
2021/10/24 12:31:40;;;;;;;;;;;;;;;16.50;92.56;99679.03;5008808;28;19924;-64
2021/10/24 12:34:15;;;;;;;;;;;;;;;16.89;91.77;99672.94;5015723;28;19914;-64
2021/10/24 12:36:41;;;;;;;;;;;;;;;16.53;87.69;99678.06;5014505;28;20018;-68
2021/10/24 12:39:07;;;;;;;;;;;;;;;16.63;84.85;99663.72;5009279;28;19924;-68